createdAt,value
2023-01-27T00:01:09.019Z,81.24
2023-01-27T00:03:37.712Z,80.86
2023-01-27T00:06:06.682Z,81.42
2023-01-27T00:08:34.522Z,81.11
2023-01-27T00:11:20.794Z,79.67
2023-01-27T00:13:48.474Z,79.34
2023-01-27T00:16:16.020Z,78.44
2023-01-27T00:18:43.755Z,79.01
2023-01-27T00:21:29.959Z,77.81
2023-01-27T00:24:15.882Z,78.62
2023-01-27T00:26:43.311Z,77.95
2023-01-27T00:29:10.648Z,76.99
2023-01-27T00:31:56.908Z,78.85
2023-01-27T00:34:24.299Z,76.80
2023-01-27T00:36:51.681Z,77.40
2023-01-27T00:39:19.106Z,77.15
2023-01-27T00:41:46.472Z,78.89
2023-01-27T00:44:14.084Z,79.16
2023-01-27T00:46:43.007Z,77.45
2023-01-27T00:49:13.456Z,77.02
2023-01-27T00:51:41.397Z,76.82
2023-01-27T00:54:09.344Z,79.46
2023-01-27T00:56:37.443Z,76.02
2023-01-27T00:59:05.299Z,77.70
2023-01-27T01:01:34.154Z,76.86
2023-01-27T01:04:01.768Z,77.76
2023-01-27T01:06:29.375Z,77.65
2023-01-27T01:08:58.112Z,78.44
2023-01-27T01:11:26.535Z,78.71
2023-01-27T01:13:56.295Z,79.29
2023-01-27T01:16:25.145Z,79.34
2023-01-27T01:18:52.944Z,78.26
2023-01-27T01:21:21.448Z,78.36
2023-01-27T01:23:48.922Z,78.76
2023-01-27T01:26:19.852Z,77.46
2023-01-27T01:28:48.303Z,78.71
2023-01-27T01:31:18.801Z,79.15
2023-01-27T01:33:47.724Z,79.65
2023-01-27T01:36:18.342Z,79.07
2023-01-27T01:38:46.710Z,79.51
2023-01-27T01:41:33.002Z,80.50
2023-01-27T01:44:19.963Z,81.58
2023-01-27T01:46:47.477Z,79.01
2023-01-27T01:49:18.179Z,79.59
2023-01-27T01:51:53.802Z,80.70
2023-01-27T01:54:25.898Z,80.71
2023-01-27T01:57:10.341Z,80.58
2023-01-27T02:00:02.097Z,80.72
2023-01-27T02:02:31.496Z,81.37
2023-01-27T02:05:06.478Z,81.11
2023-01-27T02:07:43.378Z,81.93
2023-01-27T02:10:12.710Z,81.36
2023-01-27T02:12:40.401Z,82.24
2023-01-27T02:15:10.166Z,82.63
2023-01-27T02:17:38.014Z,81.55
2023-01-27T02:20:09.440Z,82.62
2023-01-27T02:22:59.439Z,82.96
2023-01-27T02:25:35.497Z,83.30
2023-01-27T02:28:05.624Z,82.59
2023-01-27T02:30:33.858Z,83.18
2023-01-27T02:33:01.575Z,82.49
2023-01-27T02:35:37.768Z,83.98
2023-01-27T02:38:10.006Z,83.76
2023-01-27T02:40:38.010Z,84.22
2023-01-27T02:43:06.125Z,84.17
2023-01-27T02:45:33.710Z,83.40
2023-01-27T02:48:01.262Z,83.83
2023-01-27T02:50:29.042Z,83.46
2023-01-27T02:52:56.815Z,83.04
2023-01-27T02:55:24.302Z,83.73
2023-01-27T02:57:52.475Z,83.55
2023-01-27T03:00:38.392Z,83.55
2023-01-27T03:03:06.388Z,84.58
2023-01-27T03:05:33.956Z,83.71
2023-01-27T03:08:01.619Z,83.56
2023-01-27T03:10:29.238Z,83.28
2023-01-27T03:12:58.811Z,81.67
2023-01-27T03:15:44.849Z,82.63
2023-01-27T03:18:13.564Z,83.15
2023-01-27T03:20:48.786Z,82.93
2023-01-27T03:23:19.089Z,83.08
2023-01-27T03:25:51.624Z,82.75
2023-01-27T03:28:19.481Z,84.03
2023-01-27T03:31:19.741Z,81.20
2023-01-27T03:33:53.807Z,80.50
2023-01-27T03:37:06.271Z,81.12
2023-01-27T03:39:53.971Z,80.77
2023-01-27T03:42:40.138Z,80.19
2023-01-27T03:45:26.486Z,80.79
2023-01-27T03:47:54.054Z,79.87
2023-01-27T03:50:37.636Z,79.68
2023-01-27T03:53:05.676Z,79.71
2023-01-27T03:55:34.791Z,79.10
2023-01-27T03:58:18.548Z,79.08
2023-01-27T04:00:47.815Z,78.53
2023-01-27T04:03:33.854Z,79.14
2023-01-27T04:06:22.850Z,78.45
2023-01-27T04:08:50.445Z,79.14
2023-01-27T04:11:36.801Z,77.71
2023-01-27T04:14:05.769Z,78.77
2023-01-27T04:16:36.042Z,78.42
2023-01-27T04:19:08.508Z,79.74
2023-01-27T04:21:36.153Z,75.97
2023-01-27T04:24:04.410Z,75.39
2023-01-27T04:26:34.651Z,75.42
2023-01-27T04:29:02.701Z,76.40
2023-01-27T04:31:32.791Z,76.72
2023-01-27T04:34:00.716Z,75.14
2023-01-27T04:36:28.564Z,75.18
2023-01-27T04:38:56.103Z,74.65
2023-01-27T04:41:23.579Z,75.92
2023-01-27T04:43:51.118Z,75.50
2023-01-27T04:46:18.796Z,75.79
2023-01-27T04:48:46.211Z,75.57
2023-01-27T04:51:13.743Z,76.84
2023-01-27T04:53:41.232Z,75.86
2023-01-27T04:56:21.387Z,75.96
2023-01-27T04:58:49.539Z,74.67
2023-01-27T05:01:17.342Z,77.98
2023-01-27T05:03:44.964Z,79.87
2023-01-27T05:06:13.377Z,81.48
2023-01-27T05:08:41.117Z,78.85
2023-01-27T05:11:09.259Z,78.27
2023-01-27T05:13:37.641Z,77.61
2023-01-27T05:16:27.725Z,77.90
2023-01-27T05:18:56.363Z,77.97
2023-01-27T05:21:31.143Z,77.11
2023-01-27T05:23:58.713Z,76.27
2023-01-27T05:26:27.925Z,76.90
2023-01-27T05:28:58.239Z,79.19
2023-01-27T05:31:28.710Z,78.77
2023-01-27T05:33:59.093Z,77.27
2023-01-27T05:36:27.034Z,77.21
2023-01-27T05:38:55.393Z,79.70
2023-01-27T05:41:23.154Z,77.92
2023-01-27T05:43:56.004Z,77.07
2023-01-27T05:46:26.359Z,80.39
2023-01-27T05:48:56.120Z,77.98
2023-01-27T05:51:25.774Z,77.91
2023-01-27T05:53:55.192Z,77.28
2023-01-27T05:56:23.339Z,77.53
2023-01-27T05:58:50.957Z,77.37
2023-01-27T06:01:24.095Z,76.55
2023-01-27T06:03:51.720Z,78.33
2023-01-27T06:06:21.850Z,78.24
2023-01-27T06:08:49.720Z,76.17
2023-01-27T06:11:20.027Z,73.71
2023-01-27T06:13:48.540Z,77.08
2023-01-27T06:16:18.361Z,75.85
2023-01-27T06:18:46.990Z,74.11
2023-01-27T06:21:16.318Z,73.77
2023-01-27T06:23:43.768Z,74.82
2023-01-27T06:26:16.370Z,73.06
2023-01-27T06:28:44.679Z,76.29
2023-01-27T06:31:15.119Z,73.59
2023-01-27T06:33:43.206Z,72.74
2023-01-27T06:36:13.291Z,74.96
2023-01-27T06:38:41.753Z,72.58
2023-01-27T06:41:12.031Z,72.23
2023-01-27T06:43:44.919Z,71.92
2023-01-27T06:46:24.377Z,72.83
2023-01-27T06:48:51.987Z,72.79
2023-01-27T06:51:19.628Z,72.30
2023-01-27T06:53:47.083Z,73.19
2023-01-27T06:56:16.466Z,75.20
2023-01-27T06:58:44.964Z,72.47
2023-01-27T07:01:12.519Z,74.45
2023-01-27T07:03:42.910Z,75.18
2023-01-27T07:06:11.232Z,77.65
2023-01-27T07:08:38.795Z,77.26
2023-01-27T07:11:06.516Z,75.56
2023-01-27T07:13:34.096Z,73.74
2023-01-27T07:16:01.853Z,71.91
2023-01-27T07:18:29.790Z,76.06
2023-01-27T07:20:57.465Z,75.69
2023-01-27T07:23:27.712Z,73.58
2023-01-27T07:25:55.553Z,78.12
2023-01-27T07:28:26.135Z,77.22
2023-01-27T07:30:54.082Z,76.88
2023-01-27T07:33:21.688Z,79.79
2023-01-27T07:35:50.085Z,81.25
2023-01-27T07:38:20.135Z,83.06
2023-01-27T07:40:47.773Z,80.92
2023-01-27T07:43:15.473Z,79.50
2023-01-27T07:45:49.299Z,76.86
2023-01-27T07:48:19.682Z,78.60
2023-01-27T08:00:42.363Z,71.67
2023-01-27T08:46:30.360Z,65.03
2023-01-27T08:49:49.492Z,66.50
2023-01-27T08:52:56.353Z,66.09
2023-01-27T08:56:29.897Z,66.78
2023-01-27T09:09:16.009Z,65.37
2023-01-27T09:12:10.795Z,65.44
2023-01-27T09:14:42.405Z,64.25
2023-01-27T09:17:11.707Z,62.89
2023-01-27T09:19:40.480Z,68.67
2023-01-27T09:22:15.076Z,64.88
2023-01-27T09:24:48.801Z,65.67
2023-01-27T09:28:36.302Z,65.22
2023-01-27T09:31:04.941Z,65.05
2023-01-27T09:33:39.829Z,64.78
2023-01-27T09:36:18.709Z,65.56
2023-01-27T09:38:56.543Z,65.30
2023-01-27T09:42:05.060Z,66.01
2023-01-27T09:56:03.109Z,65.43
2023-01-27T09:58:42.669Z,66.30
2023-01-27T10:01:24.674Z,65.11
2023-01-27T10:04:20.221Z,64.63
2023-01-27T10:07:26.761Z,63.34
2023-01-27T10:09:57.122Z,63.02
2023-01-27T10:12:42.310Z,60.99
2023-01-27T10:15:34.608Z,60.98
2023-01-27T10:18:40.748Z,60.40
2023-01-27T10:21:21.772Z,61.59
2023-01-27T10:24:12.459Z,60.50
2023-01-27T10:26:52.199Z,61.18
2023-01-27T10:29:44.422Z,61.65
2023-01-27T10:32:35.566Z,59.79
2023-01-27T10:35:46.023Z,60.00
2023-01-27T10:39:08.370Z,61.30
2023-01-27T10:42:19.829Z,59.70
2023-01-27T10:45:04.028Z,58.57
2023-01-27T10:47:47.565Z,59.61
2023-01-27T10:55:28.236Z,57.02
2023-01-27T10:58:06.363Z,57.77
2023-01-27T11:05:42.540Z,56.46
2023-01-27T11:27:31.968Z,53.72
2023-01-27T11:30:29.917Z,54.46
2023-01-27T11:36:49.947Z,53.59
2023-01-27T11:39:23.458Z,55.83
2023-01-27T11:41:56.264Z,54.32
2023-01-27T11:44:30.308Z,53.17
2023-01-27T11:47:23.957Z,55.79
2023-01-27T11:50:00.800Z,55.91
2023-01-27T11:52:32.988Z,56.47
2023-01-27T11:55:51.304Z,52.38
2023-01-27T11:59:59.789Z,53.40
2023-01-27T12:02:50.243Z,53.81
2023-01-27T12:06:31.569Z,54.97
2023-01-27T12:09:06.180Z,54.30
2023-01-27T12:11:33.964Z,54.50
2023-01-27T12:14:04.130Z,54.41
2023-01-27T12:17:52.347Z,54.53
2023-01-27T12:21:56.854Z,55.59
2023-01-27T12:24:58.180Z,58.07
2023-01-27T12:28:49.987Z,57.77
2023-01-27T12:32:27.456Z,55.87
2023-01-27T12:35:09.811Z,55.90
2023-01-27T12:38:03.149Z,54.11
2023-01-27T12:58:42.134Z,56.15
2023-01-27T13:09:25.745Z,56.08
2023-01-27T13:41:53.025Z,57.01
2023-01-27T13:45:41.666Z,57.48
2023-01-27T14:16:11.007Z,59.23
2023-01-27T14:19:17.046Z,56.82
2023-01-27T14:22:29.657Z,58.33
2023-01-27T14:25:23.660Z,58.73
2023-01-27T14:28:45.263Z,55.16
2023-01-27T14:32:04.754Z,55.15
2023-01-27T14:34:50.641Z,55.37
2023-01-27T14:37:29.345Z,55.94
2023-01-27T14:40:08.795Z,55.51
2023-01-27T14:43:02.504Z,55.37
2023-01-27T14:45:40.114Z,54.86
2023-01-27T14:48:28.532Z,55.60
2023-01-27T14:51:06.962Z,58.29
2023-01-27T14:53:53.549Z,55.35
2023-01-27T14:57:05.884Z,57.27
2023-01-27T14:59:39.306Z,56.94
2023-01-27T15:02:40.671Z,59.00
2023-01-27T15:05:23.736Z,59.08
2023-01-27T15:08:05.627Z,61.00
2023-01-27T15:10:34.197Z,58.03
2023-01-27T15:13:48.768Z,61.01
2023-01-27T15:17:23.835Z,61.37
2023-01-27T15:27:21.181Z,63.71
2023-01-27T15:29:49.189Z,64.54
2023-01-27T15:32:19.006Z,63.99
2023-01-27T15:34:53.001Z,65.70
2023-01-27T15:37:28.467Z,69.11
2023-01-27T15:40:06.546Z,66.67
2023-01-27T15:42:52.704Z,67.56
2023-01-27T15:45:41.686Z,70.47
2023-01-27T15:48:20.888Z,72.92
2023-01-27T15:51:09.764Z,76.08
2023-01-27T16:06:32.050Z,75.26
2023-01-27T16:09:09.071Z,77.62
2023-01-27T16:11:42.019Z,74.18
2023-01-27T16:14:14.375Z,73.99
2023-01-27T16:16:50.599Z,74.63
2023-01-27T16:19:30.484Z,76.34
2023-01-27T16:22:13.122Z,76.72
2023-01-27T16:24:48.604Z,78.49
2023-01-27T16:27:28.172Z,78.72
2023-01-27T16:30:13.071Z,80.48
2023-01-27T16:32:51.790Z,82.43
2023-01-27T16:35:22.397Z,81.01
2023-01-27T16:38:14.837Z,82.18
2023-01-27T16:40:51.332Z,80.40
2023-01-27T16:43:23.603Z,80.54
2023-01-27T16:45:54.643Z,80.71
2023-01-27T16:48:47.164Z,80.55
2023-01-27T16:51:20.156Z,80.91
2023-01-27T16:53:50.512Z,81.12
2023-01-27T16:56:28.211Z,80.96
2023-01-27T16:59:09.084Z,79.40
2023-01-27T17:01:48.475Z,81.17
2023-01-27T17:04:27.364Z,83.90
2023-01-27T17:07:13.583Z,84.67
2023-01-27T17:09:45.680Z,84.40
2023-01-27T17:12:26.039Z,83.94
2023-01-27T17:14:54.123Z,84.36
2023-01-27T17:17:27.187Z,82.45
2023-01-27T17:20:06.795Z,82.97
2023-01-27T17:22:39.918Z,81.48
2023-01-27T17:25:29.648Z,82.26
2023-01-27T17:28:00.690Z,84.33
2023-01-27T17:30:39.686Z,83.92
2023-01-27T17:33:14.538Z,81.90
2023-01-27T17:35:43.177Z,81.99
2023-01-27T17:38:14.708Z,83.45
2023-01-27T17:40:45.550Z,83.95
2023-01-27T17:43:23.410Z,82.42
2023-01-27T17:46:09.715Z,83.24
2023-01-27T17:48:41.060Z,84.27
2023-01-27T17:51:12.960Z,86.34
2023-01-27T17:53:42.555Z,85.73
2023-01-27T17:56:28.106Z,86.52
2023-01-27T17:59:07.333Z,85.92
2023-01-27T18:01:35.793Z,88.46
2023-01-27T18:04:06.204Z,82.39
2023-01-27T18:06:34.005Z,82.29
2023-01-27T18:09:15.541Z,84.69
2023-01-27T18:11:59.497Z,85.16
2023-01-27T18:17:29.950Z,84.76
2023-01-27T18:19:57.639Z,84.99
2023-01-27T18:22:29.450Z,87.56
2023-01-27T18:25:05.520Z,87.15
2023-01-27T18:27:40.738Z,87.78
2023-01-27T18:30:41.018Z,88.12
2023-01-27T18:33:45.029Z,86.52
2023-01-27T18:36:24.396Z,86.79
2023-01-27T18:38:59.544Z,87.37
2023-01-27T18:41:38.323Z,85.76
2023-01-27T18:44:12.217Z,87.63
2023-01-27T18:47:34.208Z,87.55
2023-01-27T18:50:10.794Z,85.25
2023-01-27T18:53:11.886Z,84.70
2023-01-27T18:56:21.245Z,84.55
2023-01-27T19:00:12.087Z,83.91
2023-01-27T19:02:48.635Z,82.51
2023-01-27T19:06:01.570Z,85.14
2023-01-27T19:09:04.636Z,83.95
2023-01-27T19:11:47.106Z,83.22
2023-01-27T19:14:32.163Z,84.09
2023-01-27T19:18:49.042Z,84.05
2023-01-27T19:21:28.545Z,85.71
2023-01-27T19:24:15.946Z,84.60
2023-01-27T19:27:51.221Z,85.53
2023-01-27T19:31:39.039Z,85.38
2023-01-27T19:34:27.634Z,84.53
2023-01-27T19:42:53.320Z,86.28
2023-01-27T19:45:48.729Z,86.74
2023-01-27T19:48:21.965Z,87.32
2023-01-27T19:50:57.273Z,86.18
2023-01-27T19:54:39.029Z,86.82
2023-01-27T19:57:21.920Z,86.38
2023-01-27T19:59:55.149Z,86.67
2023-01-27T20:02:43.817Z,86.71
2023-01-27T20:05:16.681Z,87.39
2023-01-27T20:08:21.485Z,87.23
2023-01-27T20:14:55.564Z,87.77
2023-01-27T20:17:37.729Z,87.50
2023-01-27T20:20:05.843Z,87.75
2023-01-27T20:22:36.174Z,88.20
2023-01-27T20:28:32.565Z,87.18
2023-01-27T20:31:19.571Z,88.11
2023-01-27T20:33:52.580Z,90.28
2023-01-27T20:36:41.740Z,88.74
2023-01-27T20:42:29.245Z,88.80
2023-01-27T20:44:58.103Z,89.32
2023-01-27T20:47:55.300Z,89.04
2023-01-27T20:50:26.383Z,89.57
2023-01-27T20:53:11.774Z,89.56
2023-01-27T20:55:42.167Z,90.08
2023-01-27T20:58:37.481Z,90.11
2023-01-27T21:01:23.357Z,89.32
2023-01-27T21:04:18.077Z,90.36
2023-01-27T21:06:51.829Z,90.47
2023-01-27T21:09:34.124Z,90.68
2023-01-27T21:12:17.510Z,90.23
2023-01-27T21:15:07.812Z,89.53
2023-01-27T21:18:16.837Z,90.62
2023-01-27T21:21:29.335Z,91.10
2023-01-27T21:24:05.097Z,93.19
2023-01-27T21:26:42.216Z,94.26
2023-01-27T21:29:11.845Z,94.73
2023-01-27T21:31:40.344Z,94.96
2023-01-27T21:34:12.001Z,95.04
2023-01-27T21:36:45.069Z,95.65
2023-01-27T21:39:15.096Z,96.07
2023-01-27T21:42:05.349Z,94.85
2023-01-27T21:44:51.847Z,94.45
2023-01-27T21:47:20.456Z,94.16
2023-01-27T21:50:00.714Z,94.80
2023-01-27T21:52:36.493Z,95.69
2023-01-27T21:55:31.611Z,96.07
2023-01-27T21:58:04.955Z,97.53
2023-01-27T22:00:43.433Z,99.39
2023-01-27T22:03:30.035Z,97.04
2023-01-27T22:06:21.681Z,95.96
2023-01-27T22:09:11.533Z,95.69
2023-01-27T22:11:52.373Z,96.64
2023-01-27T22:14:19.938Z,96.92
2023-01-27T22:17:08.667Z,97.33
2023-01-27T22:20:01.192Z,97.62
2023-01-27T22:22:33.094Z,98.82
2023-01-27T22:25:13.182Z,97.88
2023-01-27T22:28:02.417Z,95.59
2023-01-27T22:30:43.422Z,96.02
2023-01-27T22:33:32.755Z,95.13
2023-01-27T22:36:05.878Z,94.58
2023-01-27T22:38:42.554Z,95.84
2023-01-27T22:41:22.752Z,94.56
2023-01-27T22:44:04.871Z,93.85
2023-01-27T22:46:48.268Z,94.45
2023-01-27T22:49:26.091Z,95.17
2023-01-27T22:51:59.426Z,95.51
2023-01-27T22:54:27.107Z,95.99
2023-01-27T22:57:16.665Z,95.37
2023-01-27T23:00:06.168Z,95.61
2023-01-27T23:02:44.270Z,95.69
2023-01-27T23:05:17.070Z,93.66
2023-01-27T23:07:51.103Z,93.81
2023-01-27T23:10:23.999Z,93.42
2023-01-27T23:12:51.517Z,92.49
2023-01-27T23:15:19.282Z,93.82
2023-01-27T23:17:48.719Z,96.56
2023-01-27T23:20:17.150Z,97.06
2023-01-27T23:22:45.071Z,96.42
2023-01-27T23:25:17.561Z,100.00
2023-01-27T23:27:48.947Z,99.67
2023-01-27T23:30:20.161Z,99.67
2023-01-27T23:32:51.153Z,99.27
2023-01-27T23:35:22.174Z,96.79
2023-01-27T23:37:49.737Z,96.98
2023-01-27T23:40:17.571Z,94.17
2023-01-27T23:42:45.109Z,95.05
2023-01-27T23:45:13.375Z,97.21
2023-01-27T23:47:41.290Z,99.13
2023-01-27T23:50:11.494Z,100.00
2023-01-27T23:52:40.219Z,100.00
2023-01-27T23:55:19.619Z,100.00
2023-01-27T23:57:52.169Z,100.00
